Time;durP1;ratioP1;P1;durP2;ratioP2;P2;SDS_P1;SDS_P2;PMS_P1;PMS_P2;Temp;Humidity;BMP_temperature;BMP_pressure;BME280_temperature;BME280_humidity;BME280_pressure;Samples;Min_cycle;Max_cycle;Signal;HPM_P1;HPM_P2
2023/04/12 00:00:10;;;;;;;64.17;5.50;;;;;;;;;;5072001;28;20455;-69
2023/04/12 00:02:37;;;;;;;61.80;5.40;;;;;;;;;;5072558;28;20789;-68
2023/04/12 00:05:04;;;;;;;61.10;5.63;;;;;;;;;;5072633;28;20470;-67
2023/04/12 00:07:33;;;;;;;66.37;8.93;;;;;;;;;;5071930;28;20458;-68
2023/04/12 00:10:00;;;;;;;66.13;7.80;;;;;;;;;;5071155;28;20454;-67
2023/04/12 00:12:27;;;;;;;62.57;5.97;;;;;;;;;;5071989;28;20457;-67
2023/04/12 00:14:55;;;;;;;63.37;6.67;;;;;;;;;;5071928;28;20490;-67
2023/04/12 00:17:22;;;;;;;62.40;6.17;;;;;;;;;;5072221;28;20447;-67
2023/04/12 00:19:49;;;;;;;60.90;5.30;;;;;;;;;;5071736;28;20463;-69
2023/04/12 00:22:16;;;;;;;62.50;5.90;;;;;;;;;;5071519;28;20451;-67
2023/04/12 00:24:44;;;;;;;61.30;4.40;;;;;;;;;;5071562;28;20960;-69
2023/04/12 00:27:11;;;;;;;60.80;4.90;;;;;;;;;;5072108;28;20443;-67
2023/04/12 00:29:38;;;;;;;60.97;5.43;;;;;;;;;;5071430;28;21058;-69
2023/04/12 00:32:06;;;;;;;61.60;5.00;;;;;;;;;;5072378;28;20450;-67
2023/04/12 00:34:33;;;;;;;63.70;4.90;;;;;;;;;;5072074;28;20483;-67
2023/04/12 00:37:01;;;;;;;66.73;5.67;;;;;;;;;;5071942;28;20455;-68
2023/04/12 00:39:28;;;;;;;61.07;5.10;;;;;;;;;;5071583;28;20521;-67
2023/04/12 00:41:55;;;;;;;62.40;5.00;;;;;;;;;;5071828;28;21014;-67
2023/04/12 00:44:22;;;;;;;60.47;5.50;;;;;;;;;;5071913;28;20443;-69
2023/04/12 00:46:50;;;;;;;61.90;4.40;;;;;;;;;;5071825;28;20459;-67
2023/04/12 00:49:18;;;;;;;60.07;4.10;;;;;;;;;;5071626;28;20473;-68
2023/04/12 00:51:45;;;;;;;60.80;4.40;;;;;;;;;;5072211;28;20452;-67
2023/04/12 00:54:16;;;;;;;60.17;3.90;;;;;;;;;;5071719;28;20483;-70
2023/04/12 00:56:44;;;;;;;61.57;5.07;;;;;;;;;;5071744;28;20554;-67
2023/04/12 00:59:11;;;;;;;67.93;4.57;;;;;;;;;;5071290;28;20502;-68
2023/04/12 01:01:39;;;;;;;64.20;4.57;;;;;;;;;;5071898;28;20447;-68
2023/04/12 01:04:08;;;;;;;59.07;3.97;;;;;;;;;;5071882;28;20952;-68
2023/04/12 01:06:41;;;;;;;59.20;3.80;;;;;;;;;;5072131;28;20499;-69
2023/04/12 01:09:14;;;;;;;60.07;4.00;;;;;;;;;;5071242;28;20486;-67
2023/04/12 01:11:44;;;;;;;61.30;4.40;;;;;;;;;;5071827;28;20524;-67
2023/04/12 01:14:16;;;;;;;60.20;4.57;;;;;;;;;;5071486;28;20508;-68
2023/04/12 01:16:44;;;;;;;60.73;4.80;;;;;;;;;;5071569;28;20453;-68
2023/04/12 01:19:27;;;;;;;65.03;4.50;;;;;;;;;;5071268;28;20987;-68
2023/04/12 01:22:01;;;;;;;59.73;4.60;;;;;;;;;;5071803;28;20924;-67
2023/04/12 01:24:37;;;;;;;59.55;4.30;;;;;;;;;;5071738;28;20464;-67
2023/04/12 01:27:12;;;;;;;59.10;3.90;;;;;;;;;;5071642;28;20588;-67
2023/04/12 01:29:41;;;;;;;60.58;4.30;;;;;;;;;;5071084;28;20475;-67
2023/04/12 01:32:10;;;;;;;59.78;4.72;;;;;;;;;;5071319;28;20211;-68
2023/04/12 01:34:38;;;;;;;61.60;4.03;;;;;;;;;;5072765;28;20743;-67
2023/04/12 01:37:05;;;;;;;65.97;5.00;;;;;;;;;;5075214;28;20455;-68
2023/04/12 01:39:34;;;;;;;61.05;4.68;;;;;;;;;;5074874;28;20463;-68
2023/04/12 01:42:01;;;;;;;62.30;4.40;;;;;;;;;;5075233;28;20215;-67
2023/04/12 01:44:28;;;;;;;61.17;4.80;;;;;;;;;;5073775;28;20544;-68
2023/04/12 01:46:57;;;;;;;69.30;5.50;;;;;;;;;;5075245;28;20474;-67
2023/04/12 01:49:27;;;;;;;61.63;4.60;;;;;;;;;;5074602;28;20506;-68
2023/04/12 01:51:57;;;;;;;63.57;5.93;;;;;;;;;;5074748;28;20447;-69
2023/04/12 01:54:26;;;;;;;60.70;4.83;;;;;;;;;;5074694;28;20510;-67
2023/04/12 01:56:56;;;;;;;60.33;4.60;;;;;;;;;;5074972;28;20458;-67
2023/04/12 01:59:24;;;;;;;66.53;5.73;;;;;;;;;;5074769;28;20506;-67
2023/04/12 02:01:52;;;;;;;61.60;5.80;;;;;;;;;;5074957;28;20443;-67
2023/04/12 02:04:21;;;;;;;60.97;5.27;;;;;;;;;;5074804;28;20445;-68
2023/04/12 02:06:48;;;;;;;59.60;4.73;;;;;;;;;;5074350;28;20450;-69
2023/04/12 02:09:15;;;;;;;60.30;5.17;;;;;;;;;;5074018;28;20836;-67
2023/04/12 02:11:46;;;;;;;60.60;4.87;;;;;;;;;;5074958;28;20451;-69
2023/04/12 02:14:14;;;;;;;60.95;5.45;;;;;;;;;;5074638;28;20531;-67
2023/04/12 02:16:43;;;;;;;66.90;6.87;;;;;;;;;;5074506;28;20248;-68
2023/04/12 02:19:10;;;;;;;61.17;4.87;;;;;;;;;;5073851;28;20520;-67
2023/04/12 02:21:42;;;;;;;61.40;6.07;;;;;;;;;;5074749;28;20943;-68
2023/04/12 02:24:10;;;;;;;63.50;5.40;;;;;;;;;;5073650;28;20482;-69
2023/04/12 02:26:37;;;;;;;68.70;5.93;;;;;;;;;;5074060;28;20288;-67
2023/04/12 02:29:06;;;;;;;64.80;5.30;;;;;;;;;;5073982;28;20478;-67
2023/04/12 02:31:33;;;;;;;64.50;5.00;;;;;;;;;;5074183;28;20944;-68
2023/04/12 02:34:00;;;;;;;67.97;6.40;;;;;;;;;;5074096;28;20455;-67
2023/04/12 02:36:27;;;;;;;64.50;5.80;;;;;;;;;;5074118;28;20455;-68
2023/04/12 02:38:56;;;;;;;64.77;5.20;;;;;;;;;;5073569;28;20603;-67
2023/04/12 02:41:24;;;;;;;63.53;5.80;;;;;;;;;;5074072;28;20447;-67
2023/04/12 02:43:51;;;;;;;61.80;5.60;;;;;;;;;;5074139;28;20205;-67
2023/04/12 02:46:20;;;;;;;61.33;4.30;;;;;;;;;;5072848;28;20447;-68
2023/04/12 02:48:47;;;;;;;60.20;4.90;;;;;;;;;;5073850;28;20221;-67
2023/04/12 02:51:14;;;;;;;62.75;5.50;;;;;;;;;;5074196;28;20455;-67
2023/04/12 02:53:41;;;;;;;67.83;5.80;;;;;;;;;;5073403;28;20696;-67
2023/04/12 02:56:10;;;;;;;63.70;5.20;;;;;;;;;;5073326;28;20487;-68
2023/04/12 02:58:38;;;;;;;68.50;6.65;;;;;;;;;;5073427;28;20291;-67
2023/04/12 03:01:06;;;;;;;63.28;5.95;;;;;;;;;;5073610;28;20212;-66
2023/04/12 03:03:34;;;;;;;61.00;5.72;;;;;;;;;;5074009;28;20209;-67
2023/04/12 03:06:01;;;;;;;71.70;6.45;;;;;;;;;;5073972;28;20209;-67
2023/04/12 03:08:28;;;;;;;62.50;5.50;;;;;;;;;;5073210;28;20720;-68
2023/04/12 03:10:55;;;;;;;65.27;5.90;;;;;;;;;;5073561;28;20447;-67
2023/04/12 03:13:24;;;;;;;62.78;5.78;;;;;;;;;;5073377;28;20451;-67
2023/04/12 03:15:56;;;;;;;66.43;6.17;;;;;;;;;;5073769;28;20231;-66
2023/04/12 03:18:24;;;;;;;66.13;6.28;;;;;;;;;;5073428;28;20470;-67
2023/04/12 03:20:52;;;;;;;61.22;5.57;;;;;;;;;;5073043;28;20263;-67
2023/04/12 03:23:20;;;;;;;60.78;5.47;;;;;;;;;;5072767;28;20209;-67
2023/04/12 03:25:47;;;;;;;60.08;4.85;;;;;;;;;;5073453;28;20208;-67
2023/04/12 03:28:14;;;;;;;61.90;5.67;;;;;;;;;;5072898;28;20251;-68
2023/04/12 03:30:43;;;;;;;61.53;6.50;;;;;;;;;;5073003;28;20869;-67
2023/04/12 03:33:10;;;;;;;62.10;5.80;;;;;;;;;;5073210;28;20458;-67
2023/04/12 03:35:37;;;;;;;61.70;5.28;;;;;;;;;;5072862;28;20721;-68
2023/04/12 03:38:04;;;;;;;63.40;6.32;;;;;;;;;;5072258;28;20229;-66
2023/04/12 03:40:31;;;;;;;61.92;5.82;;;;;;;;;;5072805;28;20205;-67
2023/04/12 03:42:58;;;;;;;63.13;5.50;;;;;;;;;;5072906;28;20205;-67
2023/04/12 03:45:25;;;;;;;61.83;5.70;;;;;;;;;;5072995;28;20444;-68
2023/04/12 03:47:54;;;;;;;63.23;5.70;;;;;;;;;;5072845;28;20611;-67
2023/04/12 03:50:21;;;;;;;61.47;5.68;;;;;;;;;;5072595;28;20454;-67
2023/04/12 03:52:49;;;;;;;59.63;5.23;;;;;;;;;;5072365;28;20205;-68
2023/04/12 03:55:16;;;;;;;61.83;5.57;;;;;;;;;;5072196;28;20901;-67
2023/04/12 03:57:44;;;;;;;61.80;5.40;;;;;;;;;;5071781;28;20615;-67
2023/04/12 04:00:12;;;;;;;63.42;6.00;;;;;;;;;;5072399;28;20505;-67
2023/04/12 04:02:39;;;;;;;63.13;6.38;;;;;;;;;;5072619;28;20201;-67
2023/04/12 04:05:08;;;;;;;63.97;5.10;;;;;;;;;;5072951;28;20197;-67
2023/04/12 04:07:35;;;;;;;65.83;5.53;;;;;;;;;;5072074;28;20829;-67
2023/04/12 04:10:03;;;;;;;62.53;5.50;;;;;;;;;;5072332;28;20443;-67
2023/04/12 04:12:30;;;;;;;61.20;5.40;;;;;;;;;;5072429;28;20444;-67
2023/04/12 04:14:57;;;;;;;61.80;5.65;;;;;;;;;;5072138;28;20483;-67
2023/04/12 04:17:24;;;;;;;63.73;6.13;;;;;;;;;;5072321;28;20692;-68
2023/04/12 04:19:52;;;;;;;60.30;5.23;;;;;;;;;;5071762;28;20481;-67
2023/04/12 04:22:21;;;;;;;62.03;5.73;;;;;;;;;;5071600;28;20872;-68
2023/04/12 04:24:49;;;;;;;61.67;5.90;;;;;;;;;;5072096;28;20452;-68
2023/04/12 04:27:16;;;;;;;62.75;5.28;;;;;;;;;;5071972;28;20542;-68
2023/04/12 04:29:44;;;;;;;61.13;5.63;;;;;;;;;;5071872;28;20225;-68
2023/04/12 04:32:11;;;;;;;62.30;5.47;;;;;;;;;;5072103;28;20691;-68
2023/04/12 04:34:39;;;;;;;62.03;5.87;;;;;;;;;;5071975;28;20304;-70
2023/04/12 04:37:06;;;;;;;60.20;5.60;;;;;;;;;;5071883;28;20955;-68
2023/04/12 04:39:35;;;;;;;62.13;5.78;;;;;;;;;;5071520;28;20979;-69
2023/04/12 04:42:05;;;;;;;66.38;6.15;;;;;;;;;;5071927;28;20259;-68
2023/04/12 04:44:34;;;;;;;64.93;5.85;;;;;;;;;;5072099;28;20205;-68
2023/04/12 04:47:02;;;;;;;61.00;5.27;;;;;;;;;;5071784;28;20263;-68
2023/04/12 04:49:29;;;;;;;66.00;6.23;;;;;;;;;;5071617;28;20470;-68
2023/04/12 04:51:56;;;;;;;64.27;5.83;;;;;;;;;;5071620;28;20447;-68
2023/04/12 04:54:23;;;;;;;65.47;6.60;;;;;;;;;;5071283;28;20451;-69
2023/04/12 04:56:52;;;;;;;64.47;6.37;;;;;;;;;;5071473;28;20229;-68
2023/04/12 04:59:19;;;;;;;64.20;6.00;;;;;;;;;;5071415;28;20970;-68
2023/04/12 05:01:46;;;;;;;70.97;10.97;;;;;;;;;;5071663;28;20826;-68
2023/04/12 05:04:13;;;;;;;71.03;10.45;;;;;;;;;;5071856;28;20443;-70
2023/04/12 05:06:40;;;;;;;64.15;6.97;;;;;;;;;;5071724;28;20658;-69
2023/04/12 05:09:07;;;;;;;62.70;6.20;;;;;;;;;;5071365;28;20224;-69
2023/04/12 05:11:34;;;;;;;64.45;5.85;;;;;;;;;;5075926;28;20447;-68
2023/04/12 05:14:03;;;;;;;62.75;6.00;;;;;;;;;;5075628;28;20205;-69
2023/04/12 05:16:30;;;;;;;65.13;6.20;;;;;;;;;;5075423;28;20249;-68
2023/04/12 05:18:57;;;;;;;63.47;6.13;;;;;;;;;;5075485;28;20226;-67
2023/04/12 05:21:25;;;;;;;62.43;6.40;;;;;;;;;;5075490;28;20205;-68
2023/04/12 05:23:52;;;;;;;61.03;5.90;;;;;;;;;;5075321;28;20459;-69
2023/04/12 05:26:20;;;;;;;62.47;7.30;;;;;;;;;;5075422;28;20201;-68
2023/04/12 05:28:47;;;;;;;61.13;5.35;;;;;;;;;;5074807;28;20471;-68
2023/04/12 05:31:16;;;;;;;63.87;5.90;;;;;;;;;;5075369;28;20292;-68
2023/04/12 05:33:44;;;;;;;61.87;5.63;;;;;;;;;;5075591;28;20442;-68
2023/04/12 05:36:11;;;;;;;63.50;6.30;;;;;;;;;;5075377;28;20600;-68
2023/04/12 05:38:38;;;;;;;68.27;7.00;;;;;;;;;;5074867;28;20983;-68
2023/04/12 05:41:06;;;;;;;62.27;6.40;;;;;;;;;;5075193;28;20458;-68
2023/04/12 05:43:33;;;;;;;68.43;8.05;;;;;;;;;;5075618;28;20447;-68
2023/04/12 05:46:00;;;;;;;62.27;6.70;;;;;;;;;;5075447;28;20478;-67
2023/04/12 05:48:28;;;;;;;68.70;7.40;;;;;;;;;;5075211;28;20474;-68
2023/04/12 05:50:55;;;;;;;70.70;8.02;;;;;;;;;;5075017;28;20822;-68
2023/04/12 05:53:23;;;;;;;62.33;7.18;;;;;;;;;;5074961;28;20205;-69
2023/04/12 05:55:50;;;;;;;62.72;6.38;;;;;;;;;;5074890;28;20310;-68
2023/04/12 05:58:17;;;;;;;63.53;7.07;;;;;;;;;;5074743;28;20286;-68
2023/04/12 06:00:45;;;;;;;62.38;6.60;;;;;;;;;;5074845;28;20443;-70
2023/04/12 06:03:12;;;;;;;61.90;6.60;;;;;;;;;;5075050;28;20587;-68
2023/04/12 06:05:40;;;;;;;62.77;7.00;;;;;;;;;;5074905;28;20450;-69
2023/04/12 06:08:09;;;;;;;67.73;8.03;;;;;;;;;;5074663;28;20477;-69
2023/04/12 06:10:36;;;;;;;62.97;7.10;;;;;;;;;;5074258;28;20538;-69
2023/04/12 06:13:03;;;;;;;60.92;6.10;;;;;;;;;;5074801;28;20460;-70
2023/04/12 06:15:30;;;;;;;62.77;7.00;;;;;;;;;;5074755;28;20225;-69
2023/04/12 06:17:58;;;;;;;62.80;6.57;;;;;;;;;;5074578;28;20836;-69
2023/04/12 06:20:25;;;;;;;63.10;6.60;;;;;;;;;;5074197;28;20665;-69
2023/04/12 06:22:54;;;;;;;62.97;6.00;;;;;;;;;;5074492;28;20573;-69
2023/04/12 06:25:21;;;;;;;68.23;7.63;;;;;;;;;;5074556;28;20435;-69
2023/04/12 06:27:48;;;;;;;64.70;8.53;;;;;;;;;;5074514;28;20491;-68
2023/04/12 06:30:17;;;;;;;64.00;7.37;;;;;;;;;;5074234;28;20922;-69
2023/04/12 06:32:44;;;;;;;60.53;5.72;;;;;;;;;;5074333;28;20811;-69
2023/04/12 06:35:11;;;;;;;61.30;6.17;;;;;;;;;;5074256;28;20212;-68
2023/04/12 06:37:38;;;;;;;63.40;6.33;;;;;;;;;;5074062;28;20954;-69
2023/04/12 06:40:08;;;;;;;61.07;6.20;;;;;;;;;;5074200;28;20443;-69
2023/04/12 06:42:35;;;;;;;62.70;7.17;;;;;;;;;;5074522;28;20454;-68
2023/04/12 06:45:02;;;;;;;60.93;5.83;;;;;;;;;;5074211;28;20869;-69
2023/04/12 06:47:30;;;;;;;63.00;7.00;;;;;;;;;;5074035;28;20436;-68
2023/04/12 06:49:57;;;;;;;60.40;6.00;;;;;;;;;;5073595;28;20447;-68
2023/04/12 06:52:25;;;;;;;62.10;6.50;;;;;;;;;;5073863;28;20826;-68
2023/04/12 06:54:52;;;;;;;60.60;6.40;;;;;;;;;;5073986;28;20517;-68
2023/04/12 06:57:21;;;;;;;64.17;6.43;;;;;;;;;;5073889;28;20489;-68
2023/04/12 06:59:48;;;;;;;61.70;6.70;;;;;;;;;;5073560;28;20478;-67
2023/04/12 07:02:15;;;;;;;63.03;7.03;;;;;;;;;;5074257;28;20443;-68
2023/04/12 07:04:42;;;;;;;68.50;6.70;;;;;;;;;;5073588;28;20447;-67
2023/04/12 07:07:10;;;;;;;64.37;6.40;;;;;;;;;;5073914;28;20451;-68
2023/04/12 07:09:37;;;;;;;61.50;6.10;;;;;;;;;;5073343;28;20829;-68
2023/04/12 07:12:04;;;;;;;61.67;6.50;;;;;;;;;;5073652;28;20447;-68
2023/04/12 07:14:33;;;;;;;61.73;6.77;;;;;;;;;;5073556;28;20454;-68
2023/04/12 07:17:00;;;;;;;61.70;6.53;;;;;;;;;;5073433;28;20486;-68
2023/04/12 07:19:28;;;;;;;61.00;6.67;;;;;;;;;;5072916;28;20540;-68
2023/04/12 07:21:55;;;;;;;62.07;6.37;;;;;;;;;;5073308;28;20935;-68
2023/04/12 07:24:23;;;;;;;64.70;6.67;;;;;;;;;;5073201;28;20586;-68
2023/04/12 07:26:50;;;;;;;62.37;6.27;;;;;;;;;;5073399;28;20530;-69
2023/04/12 07:29:17;;;;;;;62.30;6.60;;;;;;;;;;5072847;28;20463;-69
2023/04/12 07:31:45;;;;;;;61.37;6.30;;;;;;;;;;5072535;28;20447;-68
2023/04/12 07:34:12;;;;;;;62.00;6.30;;;;;;;;;;5073279;28;20451;-68
2023/04/12 07:36:40;;;;;;;60.87;6.20;;;;;;;;;;5073202;28;20554;-68
2023/04/12 07:39:10;;;;;;;64.40;6.10;;;;;;;;;;5072708;28;20896;-68
2023/04/12 07:41:37;;;;;;;62.80;5.77;;;;;;;;;;5073140;28;20455;-68
2023/04/12 07:44:04;;;;;;;65.90;7.80;;;;;;;;;;5072868;28;20947;-68
2023/04/12 07:46:32;;;;;;;61.47;5.90;;;;;;;;;;5072756;28;20450;-68
2023/04/12 07:49:00;;;;;;;60.07;5.30;;;;;;;;;;5072398;28;20980;-68
2023/04/12 07:51:27;;;;;;;65.93;6.27;;;;;;;;;;5072928;28;20448;-68
2023/04/12 07:53:54;;;;;;;63.03;7.13;;;;;;;;;;5072957;28;20451;-68
2023/04/12 07:56:21;;;;;;;62.40;6.17;;;;;;;;;;5072698;28;20509;-68
2023/04/12 07:58:48;;;;;;;61.30;6.13;;;;;;;;;;5072110;28;20463;-68
2023/04/12 08:01:16;;;;;;;62.93;6.33;;;;;;;;;;5073076;28;20447;-65
2023/04/12 08:03:43;;;;;;;61.43;6.00;;;;;;;;;;5072521;28;20447;-68
2023/04/12 08:06:11;;;;;;;61.20;6.80;;;;;;;;;;5072735;28;20450;-67
2023/04/12 08:08:38;;;;;;;65.33;5.87;;;;;;;;;;5072223;28;20468;-66
2023/04/12 08:11:06;;;;;;;59.30;5.20;;;;;;;;;;5072460;28;20455;-68
2023/04/12 08:13:33;;;;;;;59.50;5.00;;;;;;;;;;5072264;28;20447;-69
2023/04/12 08:16:00;;;;;;;60.27;5.37;;;;;;;;;;5072380;28;20578;-70
2023/04/12 08:18:28;;;;;;;62.40;5.00;;;;;;;;;;5072289;28;20463;-71
2023/04/12 08:20:55;;;;;;;60.27;5.27;;;;;;;;;;5072148;28;20455;-68
2023/04/12 08:23:23;;;;;;;61.90;5.70;;;;;;;;;;5072179;28;20466;-69
2023/04/12 08:25:50;;;;;;;60.47;5.60;;;;;;;;;;5072149;28;20819;-68
2023/04/12 08:28:17;;;;;;;59.07;4.63;;;;;;;;;;5072470;28;20469;-66
2023/04/12 08:30:45;;;;;;;60.60;4.70;;;;;;;;;;5071794;28;20455;-67
2023/04/12 08:33:12;;;;;;;60.87;4.90;;;;;;;;;;5072201;28;20824;-68
2023/04/12 08:35:39;;;;;;;61.00;4.93;;;;;;;;;;5072234;28;20451;-68
2023/04/12 08:38:06;;;;;;;59.87;5.40;;;;;;;;;;5071831;28;20536;-67
2023/04/12 08:40:36;;;;;;;60.00;4.93;;;;;;;;;;5071837;28;20940;-67
2023/04/12 08:43:06;;;;;;;60.20;5.20;;;;;;;;;;5071925;28;20514;-66
2023/04/12 08:45:35;;;;;;;61.10;5.47;;;;;;;;;;5072098;28;20518;-69
2023/04/12 08:48:03;;;;;;;63.87;5.30;;;;;;;;;;5071927;28;21062;-66
2023/04/12 08:50:30;;;;;;;65.20;5.10;;;;;;;;;;5071849;28;20443;-66
2023/04/12 08:52:58;;;;;;;60.70;4.83;;;;;;;;;;5072027;28;20827;-67
2023/04/12 08:55:25;;;;;;;60.37;4.77;;;;;;;;;;5071800;28;20448;-67
2023/04/12 08:57:55;;;;;;;59.50;4.53;;;;;;;;;;5071854;28;20930;-66
2023/04/12 09:00:22;;;;;;;61.93;5.63;;;;;;;;;;5071638;28;20494;-66
2023/04/12 09:02:49;;;;;;;59.80;4.50;;;;;;;;;;5071950;28;20451;-67
2023/04/12 09:05:16;;;;;;;59.57;4.70;;;;;;;;;;5071716;28;20454;-67
2023/04/12 09:07:43;;;;;;;59.37;4.80;;;;;;;;;;5071506;28;20447;-68
2023/04/12 09:10:11;;;;;;;62.60;4.77;;;;;;;;;;5071760;28;20443;-66
2023/04/12 09:12:45;;;;;;;60.17;5.20;;;;;;;;;;5071805;28;20454;-66
2023/04/12 09:15:17;;;;;;;59.37;4.50;;;;;;;;;;5071792;28;20512;-66
2023/04/12 09:17:44;;;;;;;59.90;5.13;;;;;;;;;;5071645;28;20582;-67
2023/04/12 09:20:24;;;;;;;59.10;4.70;;;;;;;;;;5071129;28;20454;-67
2023/04/12 09:22:53;;;;;;;61.97;5.00;;;;;;;;;;5071555;28;20950;-67
2023/04/12 09:25:35;;;;;;;60.40;4.70;;;;;;;;;;5071714;28;20862;-67
2023/04/12 09:28:03;;;;;;;60.17;4.77;;;;;;;;;;5071381;28;20976;-67
2023/04/12 09:30:41;;;;;;;61.47;5.30;;;;;;;;;;5071123;28;20950;-66
2023/04/12 09:33:11;;;;;;;59.77;4.90;;;;;;;;;;5071989;28;20443;-66
2023/04/12 09:35:38;;;;;;;60.87;5.40;;;;;;;;;;5071576;28;20934;-67
2023/04/12 09:38:08;;;;;;;60.07;4.83;;;;;;;;;;5071254;28;20487;-66
2023/04/12 09:40:36;;;;;;;58.67;4.07;;;;;;;;;;5071215;28;20450;-66
2023/04/12 09:43:03;;;;;;;58.97;4.20;;;;;;;;;;5071458;28;20451;-67
2023/04/12 09:45:34;;;;;;;62.67;4.73;;;;;;;;;;5071773;28;20445;-67
2023/04/12 09:48:02;;;;;;;62.50;5.30;;;;;;;;;;5071135;28;20467;-66
2023/04/12 09:50:32;;;;;;;60.20;5.10;;;;;;;;;;5070978;28;20935;-67
2023/04/12 09:52:59;;;;;;;61.10;5.03;;;;;;;;;;5071338;28;20456;-67
2023/04/12 09:55:27;;;;;;;59.77;5.10;;;;;;;;;;5072270;28;20449;-66
2023/04/12 09:57:55;;;;;;;60.10;4.37;;;;;;;;;;5074778;28;20479;-65
2023/04/12 10:00:24;;;;;;;59.50;4.27;;;;;;;;;;5074658;28;20451;-69
2023/04/12 10:02:53;;;;;;;62.00;4.80;;;;;;;;;;5074853;28;20947;-69
2023/04/12 10:05:20;;;;;;;61.60;4.60;;;;;;;;;;5074912;28;20535;-69
2023/04/12 10:07:48;;;;;;;59.93;3.87;;;;;;;;;;5074960;28;20535;-69
2023/04/12 10:10:16;;;;;;;60.77;4.50;;;;;;;;;;5074290;28;20458;-69
2023/04/12 10:12:44;;;;;;;58.97;3.70;;;;;;;;;;5074850;28;20466;-71
2023/04/12 10:15:14;;;;;;;60.47;3.83;;;;;;;;;;5074826;28;20451;-69
2023/04/12 10:17:44;;;;;;;59.40;3.90;;;;;;;;;;5074414;28;20475;-70
2023/04/12 10:20:12;;;;;;;60.30;4.27;;;;;;;;;;5074283;28;20449;-69
2023/04/12 10:22:40;;;;;;;61.63;4.53;;;;;;;;;;5074361;28;20450;-68
2023/04/12 10:25:11;;;;;;;57.93;3.77;;;;;;;;;;5074642;28;20466;-66
2023/04/12 10:27:40;;;;;;;59.40;3.57;;;;;;;;;;5074348;28;20448;-67
2023/04/12 10:30:26;;;;;;;58.30;3.60;;;;;;;;;;5074177;28;20823;-68
2023/04/12 10:33:16;;;;;;;59.30;3.57;;;;;;;;;;5074220;28;20462;-69
2023/04/12 10:35:52;;;;;;;59.00;4.00;;;;;;;;;;5074291;28;20455;-68
2023/04/12 10:38:19;;;;;;;59.40;3.57;;;;;;;;;;5073950;28;20482;-67
2023/04/12 10:41:01;;;;;;;58.23;3.40;;;;;;;;;;5073993;28;20819;-66
2023/04/12 10:43:28;;;;;;;61.70;3.83;;;;;;;;;;5073907;28;20447;-68
2023/04/12 10:45:57;;;;;;;58.90;3.80;;;;;;;;;;5074297;28;20443;-67
2023/04/12 10:48:31;;;;;;;61.17;3.87;;;;;;;;;;5073997;28;20532;-67
2023/04/12 10:51:16;;;;;;;58.67;3.37;;;;;;;;;;5074030;28;20449;-68
2023/04/12 10:53:45;;;;;;;59.27;4.03;;;;;;;;;;5073915;28;20538;-67
2023/04/12 10:56:31;;;;;;;59.20;3.83;;;;;;;;;;5073827;28;20542;-67
2023/04/12 10:58:59;;;;;;;58.10;3.50;;;;;;;;;;5073714;28;20490;-66
2023/04/12 11:01:26;;;;;;;60.57;3.60;;;;;;;;;;5073773;28;20959;-67
2023/04/12 11:04:11;;;;;;;60.37;4.30;;;;;;;;;;5073818;28;20448;-67
2023/04/12 11:06:42;;;;;;;60.60;4.20;;;;;;;;;;5072807;28;20502;-66
2023/04/12 11:09:18;;;;;;;57.80;3.07;;;;;;;;;;5073363;28;20471;-68
2023/04/12 11:11:45;;;;;;;59.67;3.80;;;;;;;;;;5073730;28;20443;-67
2023/04/12 11:14:13;;;;;;;61.00;3.50;;;;;;;;;;5073614;28;20479;-67
2023/04/12 11:16:59;;;;;;;60.73;3.47;;;;;;;;;;5073429;28;20824;-67
2023/04/12 11:19:26;;;;;;;59.17;3.40;;;;;;;;;;5072983;28;20577;-67
2023/04/12 11:21:54;;;;;;;59.27;3.70;;;;;;;;;;5073526;28;20447;-67
2023/04/12 11:24:23;;;;;;;60.33;3.20;;;;;;;;;;5073699;28;20469;-67
2023/04/12 11:26:50;;;;;;;68.90;5.20;;;;;;;;;;5073313;28;20450;-66
2023/04/12 11:29:23;;;;;;;58.97;3.20;;;;;;;;;;5072765;28;20467;-71
2023/04/12 11:31:50;;;;;;;63.20;3.43;;;;;;;;;;5073408;28;20447;-67
2023/04/12 11:34:17;;;;;;;58.30;3.30;;;;;;;;;;5073072;28;20453;-67
2023/04/12 11:36:45;;;;;;;59.40;3.20;;;;;;;;;;5073282;28;20454;-67
2023/04/12 11:39:13;;;;;;;57.47;3.10;;;;;;;;;;5072734;28;20502;-67
2023/04/12 11:41:45;;;;;;;60.03;3.67;;;;;;;;;;5072984;28;20454;-68
2023/04/12 11:44:13;;;;;;;59.57;3.30;;;;;;;;;;5073230;28;20456;-67
2023/04/12 11:46:40;;;;;;;59.30;3.70;;;;;;;;;;5072861;28;20544;-67
2023/04/12 11:49:07;;;;;;;59.27;3.50;;;;;;;;;;5072943;28;20459;-68
2023/04/12 11:51:35;;;;;;;60.07;3.40;;;;;;;;;;5072920;28;20454;-68
2023/04/12 11:54:03;;;;;;;59.03;3.37;;;;;;;;;;5072785;28;20451;-69
2023/04/12 11:56:31;;;;;;;61.33;2.93;;;;;;;;;;5072617;28;20818;-67
2023/04/12 11:58:59;;;;;;;59.33;2.90;;;;;;;;;;5072102;28;21003;-69
2023/04/12 12:01:28;;;;;;;58.47;2.80;;;;;;;;;;5072731;28;20443;-68
2023/04/12 12:03:55;;;;;;;58.77;2.90;;;;;;;;;;5072713;28;20451;-67
2023/04/12 12:06:23;;;;;;;61.00;3.00;;;;;;;;;;5072503;28;20530;-71
2023/04/12 12:08:51;;;;;;;58.80;3.40;;;;;;;;;;5071904;28;20908;-69
2023/04/12 12:11:18;;;;;;;58.27;3.30;;;;;;;;;;5072668;28;20600;-67
2023/04/12 12:13:46;;;;;;;58.90;3.30;;;;;;;;;;5072512;28;20447;-67
2023/04/12 12:16:16;;;;;;;58.20;2.77;;;;;;;;;;5072234;28;20451;-67
2023/04/12 12:18:43;;;;;;;58.10;2.70;;;;;;;;;;5071680;28;20491;-68
2023/04/12 12:21:11;;;;;;;58.47;2.90;;;;;;;;;;5072340;28;20446;-67
2023/04/12 12:23:38;;;;;;;58.93;2.90;;;;;;;;;;5072025;28;20467;-67
2023/04/12 12:26:06;;;;;;;57.97;3.00;;;;;;;;;;5072480;28;20527;-67
2023/04/12 12:28:37;;;;;;;57.27;2.70;;;;;;;;;;5072005;28;20490;-68
2023/04/12 12:31:06;;;;;;;58.33;3.00;;;;;;;;;;5072410;28;20450;-67
2023/04/12 12:33:38;;;;;;;59.43;2.93;;;;;;;;;;5071993;28;20447;-69
2023/04/12 12:36:06;;;;;;;57.60;2.77;;;;;;;;;;5072013;28;20454;-69
2023/04/12 12:38:36;;;;;;;58.63;2.80;;;;;;;;;;5071850;28;20486;-69
2023/04/12 12:41:15;;;;;;;59.97;2.80;;;;;;;;;;5072126;28;20828;-71
2023/04/12 12:43:44;;;;;;;57.60;2.90;;;;;;;;;;5072129;28;20447;-68
2023/04/12 12:46:11;;;;;;;57.70;2.87;;;;;;;;;;5071914;28;20448;-68
2023/04/12 12:48:41;;;;;;;58.83;3.00;;;;;;;;;;5071732;28;20471;-69
2023/04/12 12:51:08;;;;;;;57.60;2.90;;;;;;;;;;5071987;28;20970;-69
2023/04/12 12:53:35;;;;;;;57.10;2.73;;;;;;;;;;5071911;28;20447;-70
2023/04/12 12:56:03;;;;;;;57.57;2.77;;;;;;;;;;5071820;28;20447;-68
2023/04/12 12:58:30;;;;;;;58.20;3.10;;;;;;;;;;5071436;28;20494;-69
2023/04/12 13:00:57;;;;;;;57.77;3.10;;;;;;;;;;5071412;28;20453;-68
2023/04/12 13:03:25;;;;;;;58.50;2.80;;;;;;;;;;5071886;28;20451;-68
2023/04/12 13:05:54;;;;;;;57.70;2.73;;;;;;;;;;5071817;28;20478;-67
2023/04/12 13:08:21;;;;;;;57.70;3.27;;;;;;;;;;5071554;28;20464;-67
2023/04/12 13:10:48;;;;;;;59.60;2.87;;;;;;;;;;5071467;28;20443;-68
2023/04/12 13:13:15;;;;;;;57.37;2.80;;;;;;;;;;5071747;28;20834;-68
2023/04/12 13:15:45;;;;;;;60.20;2.97;;;;;;;;;;5071565;28;20451;-68
2023/04/12 13:18:14;;;;;;;57.47;2.70;;;;;;;;;;5071347;28;20578;-69
2023/04/12 13:20:41;;;;;;;58.60;3.00;;;;;;;;;;5071318;28;20960;-68
2023/04/12 13:23:10;;;;;;;57.30;2.40;;;;;;;;;;5071590;28;20449;-68
2023/04/12 13:25:37;;;;;;;60.00;3.20;;;;;;;;;;5071656;28;20448;-69
2023/04/12 13:28:04;;;;;;;57.87;2.93;;;;;;;;;;5071254;28;20996;-68
2023/04/12 13:30:31;;;;;;;58.70;2.70;;;;;;;;;;5072482;28;20451;-67
2023/04/12 13:32:58;;;;;;;58.77;3.00;;;;;;;;;;5075674;28;20450;-67
2023/04/12 13:35:25;;;;;;;58.93;2.77;;;;;;;;;;5075577;28;20442;-68
2023/04/12 13:37:52;;;;;;;58.20;2.60;;;;;;;;;;5075345;28;20479;-68
2023/04/12 13:40:21;;;;;;;57.70;2.87;;;;;;;;;;5075017;28;20447;-68
2023/04/12 13:42:48;;;;;;;57.90;2.50;;;;;;;;;;5075165;28;20860;-67
2023/04/12 13:45:15;;;;;;;58.17;2.60;;;;;;;;;;5075408;28;20450;-68
2023/04/12 13:47:42;;;;;;;58.07;2.60;;;;;;;;;;5075123;28;20447;-67
2023/04/12 13:50:10;;;;;;;58.43;2.60;;;;;;;;;;5074821;28;20985;-68
2023/04/12 13:52:37;;;;;;;57.70;2.80;;;;;;;;;;5075066;28;20765;-68
2023/04/12 13:55:06;;;;;;;59.50;2.70;;;;;;;;;;5075098;28;20454;-68
2023/04/12 13:57:35;;;;;;;58.17;2.87;;;;;;;;;;5075012;28;20951;-68
2023/04/12 14:00:02;;;;;;;57.47;2.63;;;;;;;;;;5074695;28;20449;-67
2023/04/12 14:02:29;;;;;;;57.37;2.63;;;;;;;;;;5075049;28;20453;-67
2023/04/12 14:04:56;;;;;;;57.67;2.80;;;;;;;;;;5074948;28;20455;-67
2023/04/12 14:07:23;;;;;;;57.97;2.60;;;;;;;;;;5074888;28;20832;-69
2023/04/12 14:09:50;;;;;;;57.87;2.90;;;;;;;;;;5074349;28;20459;-67
2023/04/12 14:12:17;;;;;;;57.67;2.63;;;;;;;;;;5074667;28;20455;-70
2023/04/12 14:14:46;;;;;;;60.90;2.70;;;;;;;;;;5074716;28;20961;-68
2023/04/12 14:17:13;;;;;;;58.37;2.87;;;;;;;;;;5074820;28;20443;-68
2023/04/12 14:19:40;;;;;;;58.20;2.80;;;;;;;;;;5074192;28;20494;-68
2023/04/12 14:22:07;;;;;;;57.67;2.70;;;;;;;;;;5074745;28;20815;-68
2023/04/12 14:24:35;;;;;;;58.77;2.70;;;;;;;;;;5074463;28;20473;-68
2023/04/12 14:27:03;;;;;;;57.10;2.43;;;;;;;;;;5074645;28;20455;-68
2023/04/12 14:29:30;;;;;;;57.50;2.70;;;;;;;;;;5074215;28;20475;-69
2023/04/12 14:31:59;;;;;;;58.30;2.70;;;;;;;;;;5074586;28;20483;-66
2023/04/12 14:34:26;;;;;;;59.40;2.70;;;;;;;;;;5074315;28;20487;-66
2023/04/12 14:36:53;;;;;;;59.47;2.83;;;;;;;;;;5074104;28;20447;-67